createdAt,value
2022-08-17T00:00:42.790Z,3.78
2022-08-17T00:03:13.646Z,3.70
2022-08-17T00:05:47.315Z,3.80
2022-08-17T00:08:17.337Z,3.50
2022-08-17T00:10:47.903Z,3.70
2022-08-17T00:13:21.161Z,4.00
2022-08-17T00:15:50.375Z,3.90
2022-08-17T00:18:58.185Z,3.80
2022-08-17T00:21:11.818Z,4.18
2022-08-17T00:23:49.159Z,3.88
2022-08-17T00:26:35.854Z,4.18
2022-08-17T00:29:08.715Z,3.80
2022-08-17T00:31:38.170Z,4.10
2022-08-17T00:34:10.507Z,3.60
2022-08-17T00:36:38.965Z,3.75
2022-08-17T00:39:07.769Z,3.75
2022-08-17T00:41:36.160Z,4.20
2022-08-17T00:44:12.138Z,4.00
2022-08-17T00:46:43.432Z,4.28
2022-08-17T00:49:14.634Z,4.13
2022-08-17T00:51:48.943Z,3.65
2022-08-17T00:54:21.460Z,3.65
2022-08-17T00:56:55.211Z,4.22
2022-08-17T00:59:30.831Z,3.90
2022-08-17T01:02:00.683Z,3.97
2022-08-17T01:04:32.572Z,3.83
2022-08-17T01:07:02.891Z,4.00
2022-08-17T01:09:32.571Z,3.63
2022-08-17T01:12:01.515Z,3.80
2022-08-17T01:14:30.070Z,4.00
2022-08-17T01:16:58.636Z,4.15
2022-08-17T01:19:31.562Z,3.88
2022-08-17T01:22:04.136Z,4.18
2022-08-17T01:24:36.123Z,4.10
2022-08-17T01:27:10.071Z,4.05
2022-08-17T01:29:42.642Z,4.20
2022-08-17T01:32:11.631Z,3.80
2022-08-17T01:34:43.741Z,4.47
2022-08-17T01:37:21.121Z,3.70
2022-08-17T01:39:57.248Z,3.90
2022-08-17T01:42:32.455Z,3.72
2022-08-17T01:45:06.828Z,3.78
2022-08-17T01:47:36.143Z,3.92
2022-08-17T01:50:11.513Z,4.68
2022-08-17T01:52:40.517Z,3.72
2022-08-17T01:55:11.750Z,3.92
2022-08-17T01:57:40.115Z,3.80
2022-08-17T02:00:11.259Z,4.18
2022-08-17T02:02:40.960Z,4.68
2022-08-17T02:05:10.247Z,3.95
2022-08-17T02:08:00.545Z,3.92
2022-08-17T02:10:34.073Z,4.10
2022-08-17T02:13:03.926Z,4.13
2022-08-17T02:15:33.491Z,4.00
2022-08-17T02:18:02.983Z,4.07
2022-08-17T02:20:42.018Z,3.95
2022-08-17T02:23:14.760Z,4.35
2022-08-17T02:25:48.184Z,3.83
2022-08-17T02:28:19.026Z,4.10
2022-08-17T02:31:00.254Z,4.15
2022-08-17T02:33:42.135Z,4.03
2022-08-17T02:36:13.873Z,3.88
2022-08-17T02:38:43.721Z,3.90
2022-08-17T02:41:13.696Z,4.20
2022-08-17T02:43:42.753Z,4.35
2022-08-17T02:46:12.697Z,4.25
2022-08-17T02:48:41.041Z,3.78
2022-08-17T02:51:10.289Z,4.20
2022-08-17T02:53:38.647Z,4.20
2022-08-17T02:56:07.906Z,4.40
2022-08-17T02:58:37.620Z,3.88
2022-08-17T03:01:09.627Z,3.90
2022-08-17T03:03:39.269Z,4.10
2022-08-17T03:06:08.675Z,4.13
2022-08-17T03:08:38.058Z,4.30
2022-08-17T03:11:07.420Z,3.88
2022-08-17T03:13:37.402Z,3.95
2022-08-17T03:16:06.426Z,4.25
2022-08-17T03:18:35.144Z,3.83
2022-08-17T03:21:04.570Z,4.22
2022-08-17T03:23:34.073Z,4.15
2022-08-17T03:26:02.795Z,4.25
2022-08-17T03:28:32.167Z,4.13
2022-08-17T03:31:02.094Z,3.78
2022-08-17T03:33:31.131Z,4.55
2022-08-17T03:36:00.158Z,4.78
2022-08-17T03:38:29.449Z,4.70
2022-08-17T03:41:08.501Z,4.32
2022-08-17T03:43:37.341Z,4.03
2022-08-17T03:46:28.341Z,4.40
2022-08-17T03:49:23.681Z,5.00
2022-08-17T03:52:10.104Z,3.90
2022-08-17T03:55:11.811Z,4.93
2022-08-17T03:57:40.599Z,3.92
2022-08-17T04:00:10.395Z,4.07
2022-08-17T04:02:44.423Z,3.60
2022-08-17T04:05:14.948Z,3.97
2022-08-17T04:07:44.556Z,3.83
2022-08-17T04:10:14.023Z,3.83
2022-08-17T04:12:46.668Z,4.07
2022-08-17T04:15:16.156Z,3.97
2022-08-17T04:17:46.452Z,4.32
2022-08-17T04:20:17.220Z,4.25
2022-08-17T04:22:58.238Z,4.10
2022-08-17T04:25:28.240Z,4.22
2022-08-17T04:27:58.850Z,4.03
2022-08-17T04:30:29.411Z,4.15
2022-08-17T04:33:06.380Z,3.95
2022-08-17T04:35:38.894Z,3.78
2022-08-17T04:38:08.741Z,4.80
2022-08-17T04:40:55.482Z,5.00
2022-08-17T04:43:26.005Z,4.25
2022-08-17T04:45:58.727Z,4.03
2022-08-17T04:48:35.993Z,4.43
2022-08-17T04:51:09.999Z,4.20
2022-08-17T04:53:40.690Z,4.15
2022-08-17T04:56:15.964Z,4.40
2022-08-17T04:58:49.730Z,4.57
2022-08-17T05:01:23.439Z,3.72
2022-08-17T05:03:56.412Z,3.80
2022-08-17T05:06:25.065Z,4.72
2022-08-17T05:08:54.384Z,4.30
2022-08-17T05:11:23.466Z,4.78
2022-08-17T05:13:52.543Z,5.28
2022-08-17T05:16:22.620Z,4.78
2022-08-17T05:18:51.525Z,4.90
2022-08-17T05:21:23.026Z,4.40
2022-08-17T05:23:54.689Z,5.72
2022-08-17T05:26:26.690Z,5.40
2022-08-17T05:28:59.626Z,4.80
2022-08-17T05:31:29.649Z,4.85
2022-08-17T05:33:59.034Z,5.40
2022-08-17T05:36:41.743Z,4.85
2022-08-17T05:39:16.668Z,5.50
2022-08-17T05:41:48.537Z,5.85
2022-08-17T05:44:18.166Z,5.57
2022-08-17T05:46:51.270Z,6.45
2022-08-17T05:49:29.169Z,5.90
2022-08-17T05:52:07.049Z,7.15
2022-08-17T05:54:50.194Z,6.03
2022-08-17T05:57:39.890Z,6.07
2022-08-17T06:00:20.646Z,5.38
2022-08-17T06:03:05.484Z,5.40
2022-08-17T06:05:55.829Z,6.00
2022-08-17T06:08:35.025Z,5.95
2022-08-17T06:11:16.902Z,5.78
2022-08-17T06:14:03.456Z,6.10
2022-08-17T06:16:36.855Z,5.63
2022-08-17T06:19:12.030Z,5.80
2022-08-17T06:21:43.675Z,6.15
2022-08-17T06:24:27.403Z,5.80
2022-08-17T06:26:59.131Z,5.75
2022-08-17T06:29:37.274Z,4.95
2022-08-17T06:32:09.292Z,5.55
2022-08-17T06:34:42.289Z,5.15
2022-08-17T06:37:32.344Z,4.88
2022-08-17T06:40:18.002Z,5.20
2022-08-17T06:43:05.830Z,4.85
2022-08-17T06:45:40.317Z,5.47
2022-08-17T06:48:16.805Z,4.65
2022-08-17T06:50:50.540Z,4.90
2022-08-17T06:53:26.148Z,5.45
2022-08-17T06:56:03.646Z,4.80
2022-08-17T06:58:33.381Z,4.75
2022-08-17T07:01:08.012Z,4.70
2022-08-17T07:03:44.476Z,4.22
2022-08-17T07:06:16.432Z,4.32
2022-08-17T07:08:56.308Z,3.95
2022-08-17T07:11:29.034Z,4.60
2022-08-17T07:14:05.644Z,4.20
2022-08-17T07:16:39.187Z,4.68
2022-08-17T07:19:08.136Z,4.28
2022-08-17T07:21:51.071Z,3.83
2022-08-17T07:24:37.261Z,4.00
2022-08-17T07:27:11.192Z,4.50
2022-08-17T07:29:47.672Z,4.00
2022-08-17T07:32:19.678Z,3.90
2022-08-17T07:35:05.029Z,4.20
2022-08-17T07:37:34.309Z,3.65
2022-08-17T07:40:18.047Z,3.80
2022-08-17T07:46:13.160Z,4.00
2022-08-17T07:48:44.364Z,3.78
2022-08-17T07:51:19.542Z,3.75
2022-08-17T07:53:48.102Z,3.60
2022-08-17T07:56:37.812Z,3.22
2022-08-17T07:59:13.331Z,3.13
2022-08-17T08:01:48.635Z,3.40
2022-08-17T08:07:27.503Z,3.10
2022-08-17T08:10:07.632Z,2.83
2022-08-17T08:12:40.084Z,3.30
2022-08-17T08:15:17.757Z,3.00
2022-08-17T08:17:54.148Z,3.00
2022-08-17T08:20:52.306Z,3.00
2022-08-17T08:23:34.680Z,3.22
2022-08-17T08:26:18.404Z,3.42
2022-08-17T08:29:01.421Z,2.80
2022-08-17T08:31:44.204Z,3.13
2022-08-17T08:34:44.424Z,3.00
2022-08-17T08:37:32.269Z,2.92
2022-08-17T08:40:12.049Z,3.03
2022-08-17T08:42:51.204Z,3.13
2022-08-17T08:45:26.527Z,2.78
2022-08-17T08:48:22.693Z,2.90
2022-08-17T08:51:05.243Z,3.00
2022-08-17T08:53:45.617Z,2.70
2022-08-17T08:56:26.279Z,2.67
2022-08-17T08:59:03.370Z,3.33
2022-08-17T09:01:38.088Z,2.92
2022-08-17T09:04:26.005Z,3.10
2022-08-17T09:07:11.353Z,2.70
2022-08-17T09:09:49.582Z,2.83
2022-08-17T09:12:26.809Z,2.58
2022-08-17T09:15:02.305Z,2.88
2022-08-17T09:17:40.044Z,2.65
2022-08-17T09:20:28.230Z,2.75
2022-08-17T09:23:03.632Z,2.80
2022-08-17T09:25:36.428Z,3.00
2022-08-17T09:28:07.974Z,2.95
2022-08-17T09:30:42.556Z,2.95
2022-08-17T09:33:13.871Z,2.45
2022-08-17T09:35:46.730Z,2.60
2022-08-17T09:38:23.946Z,2.88
2022-08-17T09:41:00.775Z,2.90
2022-08-17T09:43:37.698Z,2.83
2022-08-17T09:46:12.646Z,2.88
2022-08-17T09:48:46.226Z,2.80
2022-08-17T09:51:19.320Z,2.58
2022-08-17T09:53:50.002Z,2.83
2022-08-17T09:56:33.771Z,2.50
2022-08-17T09:59:23.045Z,3.35
2022-08-17T10:02:00.430Z,2.78
2022-08-17T10:04:45.289Z,2.92
2022-08-17T10:07:18.808Z,2.60
2022-08-17T10:10:02.108Z,2.72
2022-08-17T10:12:38.687Z,2.67
2022-08-17T10:15:38.312Z,2.53
2022-08-17T10:18:30.560Z,2.40
2022-08-17T10:21:30.367Z,2.75
2022-08-17T10:24:24.619Z,2.80
2022-08-17T10:26:58.359Z,2.80
2022-08-17T10:29:32.699Z,2.65
2022-08-17T10:32:23.794Z,2.85
2022-08-17T10:35:25.975Z,2.22
2022-08-17T10:38:36.469Z,2.80
2022-08-17T10:41:20.676Z,2.70
2022-08-17T10:44:38.758Z,2.70
2022-08-17T10:47:00.088Z,6.43
2022-08-17T10:49:33.117Z,2.70
2022-08-17T10:52:30.527Z,2.60
2022-08-17T10:55:12.667Z,2.70
2022-08-17T10:57:45.014Z,2.80
2022-08-17T11:00:31.803Z,2.60
2022-08-17T11:03:01.499Z,2.70
2022-08-17T11:05:54.150Z,2.33
2022-08-17T11:08:37.659Z,2.33
2022-08-17T11:11:23.216Z,2.70
2022-08-17T11:14:11.599Z,2.70
2022-08-17T11:16:53.602Z,2.13
2022-08-17T11:20:00.421Z,2.50
2022-08-17T11:22:49.727Z,2.70
2022-08-17T11:25:21.090Z,2.45
2022-08-17T11:27:53.583Z,2.53
2022-08-17T11:30:48.690Z,2.13
2022-08-17T11:33:55.055Z,2.50
2022-08-17T11:36:41.433Z,2.40
2022-08-17T11:39:27.462Z,2.30
2022-08-17T11:42:05.297Z,2.35
2022-08-17T11:44:43.403Z,2.03
2022-08-17T11:47:36.161Z,2.55
2022-08-17T11:50:49.069Z,2.15
2022-08-17T11:54:14.703Z,2.10
2022-08-17T11:56:48.664Z,2.25
2022-08-17T12:00:00.041Z,2.28
2022-08-17T12:02:47.552Z,2.47
2022-08-17T12:05:34.159Z,2.05
2022-08-17T12:08:12.196Z,2.22
2022-08-17T12:10:51.532Z,2.20
2022-08-17T12:13:23.652Z,2.30
2022-08-17T12:15:59.796Z,1.90
2022-08-17T12:18:31.725Z,2.20
2022-08-17T12:21:20.937Z,2.50
2022-08-17T12:23:57.012Z,2.60
2022-08-17T12:26:31.500Z,2.50
2022-08-17T12:29:03.526Z,2.47
2022-08-17T12:31:37.227Z,2.17
2022-08-17T12:34:06.103Z,2.17
2022-08-17T12:36:35.644Z,2.50
2022-08-17T12:39:13.706Z,2.72
2022-08-17T12:41:46.929Z,2.20
2022-08-17T12:44:19.498Z,2.20
2022-08-17T12:46:55.506Z,2.47
2022-08-17T12:49:32.091Z,2.33
2022-08-17T12:52:09.768Z,2.35
2022-08-17T12:54:57.074Z,2.22
2022-08-17T12:57:28.172Z,2.33
2022-08-17T13:00:01.840Z,2.10
2022-08-17T13:02:40.076Z,2.13
2022-08-17T13:05:19.328Z,2.50
2022-08-17T13:07:48.094Z,2.58
2022-08-17T13:10:26.340Z,2.40
2022-08-17T13:12:58.167Z,2.55
2022-08-17T13:15:36.322Z,1.80
2022-08-17T13:18:09.246Z,1.90
2022-08-17T13:20:38.194Z,1.90
2022-08-17T13:23:12.610Z,2.30
2022-08-17T13:25:41.400Z,2.22
2022-08-17T13:28:30.639Z,2.30
2022-08-17T13:31:51.795Z,2.47
2022-08-17T13:34:38.721Z,2.22
2022-08-17T13:37:30.119Z,2.38
2022-08-17T13:40:30.746Z,2.15
2022-08-17T13:42:59.827Z,2.10
2022-08-17T13:45:44.851Z,2.28
2022-08-17T13:48:22.302Z,2.10
2022-08-17T13:51:08.727Z,2.08
2022-08-17T13:53:53.197Z,2.13
2022-08-17T13:56:33.380Z,2.55
2022-08-17T13:59:12.300Z,2.42
2022-08-17T14:01:43.565Z,2.20
2022-08-17T14:04:15.248Z,2.38
2022-08-17T14:06:49.795Z,2.35
2022-08-17T14:09:24.803Z,2.38
2022-08-17T14:11:56.032Z,2.30
2022-08-17T14:14:24.936Z,2.22
2022-08-17T14:16:54.850Z,2.33
2022-08-17T14:19:23.462Z,1.98
2022-08-17T14:21:59.249Z,2.00
2022-08-17T14:24:31.871Z,2.30
2022-08-17T14:27:03.777Z,2.55
2022-08-17T14:29:34.311Z,2.38
2022-08-17T14:32:07.991Z,2.60
2022-08-17T14:34:36.581Z,2.33
2022-08-17T14:37:04.965Z,2.05
2022-08-17T14:39:34.233Z,2.40
2022-08-17T14:42:04.015Z,2.58
2022-08-17T14:44:32.548Z,2.50
2022-08-17T14:47:01.326Z,2.40
2022-08-17T14:49:30.260Z,2.38
2022-08-17T14:51:59.477Z,2.22
2022-08-17T14:54:34.232Z,2.08
2022-08-17T14:57:22.819Z,2.40
2022-08-17T14:59:54.753Z,2.50
2022-08-17T15:02:29.883Z,2.35
2022-08-17T15:05:04.547Z,2.28
2022-08-17T15:07:33.415Z,2.17
2022-08-17T15:10:02.332Z,2.22
2022-08-17T15:12:34.502Z,2.08
2022-08-17T15:15:04.746Z,2.13
2022-08-17T15:17:44.538Z,2.15
2022-08-17T15:20:18.263Z,2.20
2022-08-17T15:22:49.611Z,2.25
2022-08-17T15:25:22.129Z,2.25
2022-08-17T15:27:52.743Z,2.28
2022-08-17T15:30:22.028Z,2.35
2022-08-17T15:32:54.922Z,2.30
2022-08-17T15:35:28.274Z,2.17
2022-08-17T15:38:04.538Z,2.53
2022-08-17T15:40:36.681Z,2.22
2022-08-17T15:43:07.709Z,2.90
2022-08-17T15:45:36.056Z,2.20
2022-08-17T15:48:05.014Z,2.13
2022-08-17T15:50:33.859Z,2.10
2022-08-17T15:53:03.543Z,2.63
2022-08-17T15:55:33.093Z,2.30
2022-08-17T15:58:01.844Z,2.28
2022-08-17T16:00:39.779Z,3.10
2022-08-17T16:04:01.438Z,2.40
2022-08-17T16:06:11.045Z,2.38
2022-08-17T16:08:42.026Z,2.15
2022-08-17T16:11:11.324Z,2.50
2022-08-17T16:13:40.676Z,2.50
2022-08-17T16:16:11.840Z,2.30
2022-08-17T16:18:40.524Z,2.40
2022-08-17T16:21:29.522Z,2.50
2022-08-17T16:24:02.058Z,2.30
2022-08-17T16:26:33.383Z,2.20
2022-08-17T16:29:04.480Z,2.38
2022-08-17T16:31:36.316Z,2.33
2022-08-17T16:34:23.307Z,2.50
2022-08-17T16:36:56.077Z,2.50
2022-08-17T16:39:27.397Z,2.33
2022-08-17T16:41:56.500Z,2.28
2022-08-17T16:44:26.154Z,2.33
2022-08-17T16:46:57.363Z,2.30
2022-08-17T16:49:37.020Z,2.47
2022-08-17T16:52:09.753Z,2.50
2022-08-17T16:54:40.590Z,2.58
2022-08-17T16:57:09.167Z,2.45
2022-08-17T16:59:40.948Z,2.80
2022-08-17T17:02:15.388Z,2.28
2022-08-17T17:05:03.716Z,2.20
2022-08-17T17:08:00.749Z,1.98
2022-08-17T17:10:37.002Z,2.65
2022-08-17T17:13:08.996Z,2.13
2022-08-17T17:15:51.686Z,2.47
2022-08-17T17:18:27.512Z,2.30
2022-08-17T17:20:58.240Z,2.55
2022-08-17T17:23:38.823Z,2.20
2022-08-17T17:26:19.095Z,2.10
2022-08-17T17:29:01.936Z,1.90
2022-08-17T17:31:38.324Z,2.30
2022-08-17T17:34:14.146Z,2.30
2022-08-17T17:36:47.035Z,2.22
2022-08-17T17:39:19.753Z,1.90
2022-08-17T17:41:52.361Z,2.10
2022-08-17T17:44:25.836Z,2.50
2022-08-17T17:46:58.570Z,1.90
2022-08-17T17:49:31.199Z,2.30
2022-08-17T17:52:07.690Z,2.50
2022-08-17T17:54:52.249Z,2.22
2022-08-17T17:57:30.283Z,2.40
2022-08-17T18:00:06.985Z,2.50
2022-08-17T18:02:54.705Z,2.28
2022-08-17T18:05:49.169Z,2.22
2022-08-17T18:08:32.213Z,2.17
2022-08-17T18:11:14.117Z,2.05
2022-08-17T18:14:07.547Z,2.20
2022-08-17T18:16:36.008Z,2.28
2022-08-17T18:19:06.830Z,2.38
2022-08-17T18:21:44.365Z,2.10
2022-08-17T18:24:14.000Z,2.35
2022-08-17T18:26:51.085Z,2.42
2022-08-17T18:29:31.895Z,2.20
2022-08-17T18:32:27.004Z,2.30
2022-08-17T18:34:57.755Z,2.30
2022-08-17T18:37:42.559Z,2.20
2022-08-17T18:40:29.639Z,2.40
2022-08-17T18:43:03.205Z,2.60
2022-08-17T18:45:35.703Z,2.05
2022-08-17T18:48:05.068Z,2.28
2022-08-17T18:50:41.163Z,2.20
2022-08-17T18:53:30.384Z,2.53
2022-08-17T18:56:32.224Z,2.50
2022-08-17T18:59:10.910Z,2.55
2022-08-17T19:01:53.790Z,2.50
2022-08-17T19:04:33.975Z,2.40
2022-08-17T19:07:10.777Z,2.63
2022-08-17T19:09:45.137Z,2.47
2022-08-17T19:12:27.397Z,2.97
2022-08-17T19:14:59.860Z,2.58
2022-08-17T19:17:39.634Z,2.45
2022-08-17T19:20:16.066Z,2.17
2022-08-17T19:22:55.041Z,2.60
2022-08-17T19:25:28.764Z,2.70
2022-08-17T19:28:12.707Z,2.90
2022-08-17T19:30:51.806Z,2.45
2022-08-17T19:33:20.493Z,3.00
2022-08-17T19:35:57.673Z,2.80
2022-08-17T19:38:35.473Z,3.20
2022-08-17T19:41:13.735Z,2.60
2022-08-17T19:44:01.273Z,2.80
2022-08-17T19:46:36.679Z,2.78
2022-08-17T19:49:14.580Z,2.88
2022-08-17T19:51:50.641Z,3.10
2022-08-17T19:54:26.992Z,3.00
2022-08-17T19:57:03.549Z,3.25
2022-08-17T19:59:49.035Z,3.38
2022-08-17T20:02:32.748Z,2.85
2022-08-17T20:05:06.456Z,2.83
2022-08-17T20:07:43.495Z,2.70
2022-08-17T20:10:17.124Z,2.97
2022-08-17T20:12:50.909Z,2.80
2022-08-17T20:15:26.299Z,2.72
2022-08-17T20:17:58.866Z,2.92
2022-08-17T20:20:36.415Z,2.95
2022-08-17T20:23:13.191Z,3.10
2022-08-17T20:25:49.912Z,2.88
2022-08-17T20:28:25.372Z,3.08
2022-08-17T20:30:53.770Z,3.13
2022-08-17T20:33:29.651Z,2.88
2022-08-17T20:36:18.632Z,3.33
2022-08-17T20:38:50.500Z,3.15
2022-08-17T20:41:22.421Z,3.00
2022-08-17T20:44:04.211Z,3.00
2022-08-17T20:47:02.187Z,3.05
2022-08-17T20:49:47.575Z,3.13
2022-08-17T20:52:38.405Z,2.90
2022-08-17T20:55:07.720Z,3.58
2022-08-17T20:57:54.013Z,3.08
2022-08-17T21:00:45.128Z,3.15
2022-08-17T21:03:51.085Z,3.10
2022-08-17T21:06:23.619Z,3.17
2022-08-17T21:08:57.672Z,3.15
2022-08-17T21:12:03.481Z,3.40
2022-08-17T21:14:57.387Z,3.78
2022-08-17T21:17:42.089Z,3.63
2022-08-17T21:20:24.513Z,2.95
2022-08-17T21:23:16.273Z,3.63
2022-08-17T21:26:02.790Z,3.33
2022-08-17T21:29:00.407Z,3.60
2022-08-17T21:31:34.770Z,3.33
2022-08-17T21:34:35.267Z,2.70
2022-08-17T21:37:30.483Z,3.40
2022-08-17T21:40:02.328Z,3.20
2022-08-17T21:42:35.170Z,2.80
2022-08-17T21:45:11.711Z,3.03
2022-08-17T21:47:45.516Z,2.90
2022-08-17T21:50:21.915Z,3.25
2022-08-17T21:52:54.097Z,3.47
2022-08-17T21:55:29.467Z,3.47
2022-08-17T21:58:13.973Z,4.00
2022-08-17T22:00:45.043Z,3.15
2022-08-17T22:03:27.764Z,3.13
2022-08-17T22:05:58.217Z,3.22
2022-08-17T22:08:26.802Z,3.20
2022-08-17T22:11:02.759Z,3.30
2022-08-17T22:13:31.743Z,2.80
2022-08-17T22:16:28.440Z,3.53
2022-08-17T22:18:59.948Z,3.38
2022-08-17T22:21:29.675Z,3.50
2022-08-17T22:24:05.835Z,3.83
2022-08-17T22:27:01.637Z,3.50
2022-08-17T22:29:57.653Z,3.45
2022-08-17T22:32:36.303Z,3.60
2022-08-17T22:35:37.221Z,3.53
2022-08-17T22:38:32.648Z,3.90
2022-08-17T22:41:25.962Z,3.90
2022-08-17T22:43:57.731Z,4.00
2022-08-17T22:46:26.637Z,3.80
2022-08-17T22:48:59.664Z,3.58
2022-08-17T22:51:30.805Z,3.47
2022-08-17T22:54:22.334Z,3.63
2022-08-17T22:57:14.926Z,3.10
2022-08-17T22:59:50.971Z,3.75
2022-08-17T23:02:26.709Z,3.17
2022-08-17T23:04:59.099Z,3.20
2022-08-17T23:07:27.936Z,3.83
2022-08-17T23:09:57.643Z,4.38
2022-08-17T23:12:27.910Z,3.75
2022-08-17T23:15:01.591Z,3.55
2022-08-17T23:17:37.103Z,3.53
2022-08-17T23:20:08.287Z,3.35
2022-08-17T23:22:51.203Z,3.20
2022-08-17T23:25:28.476Z,3.08
2022-08-17T23:28:01.455Z,3.63
2022-08-17T23:30:31.539Z,4.20
2022-08-17T23:33:02.339Z,3.40
2022-08-17T23:35:40.114Z,3.63
2022-08-17T23:38:10.609Z,3.78
2022-08-17T23:40:41.284Z,4.47
2022-08-17T23:43:24.084Z,4.05
2022-08-17T23:45:55.054Z,4.07
2022-08-17T23:48:35.325Z,4.70
2022-08-17T23:51:10.395Z,4.95
2022-08-17T23:53:45.110Z,5.32
2022-08-17T23:56:15.362Z,5.40
2022-08-17T23:58:44.762Z,5.13
